sensor_id;sensor_type;location;lat;lon;timestamp;P1;durP1;ratioP1;P2;durP2;ratioP2
38909;SDS011;24676;51.360;12.354;2023-09-30T00:01:09;1.95;;;0.93;;
38909;SDS011;24676;51.360;12.354;2023-09-30T00:03:54;1.30;;;0.47;;
38909;SDS011;24676;51.360;12.354;2023-09-30T00:06:38;1.50;;;0.50;;
38909;SDS011;24676;51.360;12.354;2023-09-30T00:09:23;3.13;;;0.40;;
38909;SDS011;24676;51.360;12.354;2023-09-30T00:12:07;7.82;;;1.27;;
38909;SDS011;24676;51.360;12.354;2023-09-30T00:14:51;2.42;;;0.60;;
38909;SDS011;24676;51.360;12.354;2023-09-30T00:17:36;4.13;;;1.38;;
38909;SDS011;24676;51.360;12.354;2023-09-30T00:20:20;5.30;;;0.68;;
38909;SDS011;24676;51.360;12.354;2023-09-30T00:23:04;2.80;;;0.73;;
38909;SDS011;24676;51.360;12.354;2023-09-30T00:25:49;2.72;;;0.70;;
38909;SDS011;24676;51.360;12.354;2023-09-30T00:28:33;8.18;;;1.13;;
38909;SDS011;24676;51.360;12.354;2023-09-30T00:31:18;4.85;;;1.13;;
38909;SDS011;24676;51.360;12.354;2023-09-30T00:34:02;6.45;;;1.13;;
38909;SDS011;24676;51.360;12.354;2023-09-30T00:36:46;4.30;;;0.65;;
38909;SDS011;24676;51.360;12.354;2023-09-30T00:39:32;4.50;;;0.95;;
38909;SDS011;24676;51.360;12.354;2023-09-30T00:42:16;6.43;;;0.82;;
38909;SDS011;24676;51.360;12.354;2023-09-30T00:45:01;2.42;;;0.73;;
38909;SDS011;24676;51.360;12.354;2023-09-30T00:47:48;2.30;;;0.77;;
38909;SDS011;24676;51.360;12.354;2023-09-30T00:50:33;3.65;;;0.85;;
38909;SDS011;24676;51.360;12.354;2023-09-30T00:53:17;2.25;;;1.48;;
38909;SDS011;24676;51.360;12.354;2023-09-30T00:56:01;1.30;;;0.52;;
38909;SDS011;24676;51.360;12.354;2023-09-30T00:58:46;2.33;;;1.05;;
38909;SDS011;24676;51.360;12.354;2023-09-30T01:01:34;6.10;;;0.90;;
38909;SDS011;24676;51.360;12.354;2023-09-30T01:04:20;0.85;;;0.75;;
38909;SDS011;24676;51.360;12.354;2023-09-30T01:07:05;2.10;;;0.73;;
38909;SDS011;24676;51.360;12.354;2023-09-30T01:09:49;2.33;;;0.98;;
38909;SDS011;24676;51.360;12.354;2023-09-30T01:12:34;3.00;;;1.17;;
38909;SDS011;24676;51.360;12.354;2023-09-30T01:15:18;6.95;;;1.88;;
38909;SDS011;24676;51.360;12.354;2023-09-30T01:18:03;3.42;;;1.65;;
38909;SDS011;24676;51.360;12.354;2023-09-30T01:20:47;5.68;;;1.75;;
38909;SDS011;24676;51.360;12.354;2023-09-30T01:23:34;2.40;;;1.17;;
38909;SDS011;24676;51.360;12.354;2023-09-30T01:26:22;1.35;;;0.63;;
38909;SDS011;24676;51.360;12.354;2023-09-30T01:29:06;3.50;;;1.45;;
38909;SDS011;24676;51.360;12.354;2023-09-30T01:31:50;5.70;;;0.90;;
38909;SDS011;24676;51.360;12.354;2023-09-30T01:34:35;3.35;;;1.00;;
38909;SDS011;24676;51.360;12.354;2023-09-30T01:37:19;5.63;;;2.33;;
38909;SDS011;24676;51.360;12.354;2023-09-30T01:40:04;2.60;;;0.88;;
38909;SDS011;24676;51.360;12.354;2023-09-30T01:42:51;4.88;;;1.55;;
38909;SDS011;24676;51.360;12.354;2023-09-30T01:45:35;2.88;;;1.10;;
38909;SDS011;24676;51.360;12.354;2023-09-30T01:48:19;5.00;;;1.10;;
38909;SDS011;24676;51.360;12.354;2023-09-30T01:51:03;2.13;;;1.25;;
38909;SDS011;24676;51.360;12.354;2023-09-30T01:53:47;5.88;;;1.45;;
38909;SDS011;24676;51.360;12.354;2023-09-30T01:56:32;4.90;;;1.88;;
38909;SDS011;24676;51.360;12.354;2023-09-30T01:59:15;5.18;;;1.27;;
38909;SDS011;24676;51.360;12.354;2023-09-30T02:02:00;3.67;;;2.25;;
38909;SDS011;24676;51.360;12.354;2023-09-30T02:04:45;8.68;;;1.48;;
38909;SDS011;24676;51.360;12.354;2023-09-30T02:07:29;1.95;;;1.10;;
38909;SDS011;24676;51.360;12.354;2023-09-30T02:10:14;5.00;;;2.38;;
38909;SDS011;24676;51.360;12.354;2023-09-30T02:12:58;6.63;;;2.03;;
38909;SDS011;24676;51.360;12.354;2023-09-30T02:15:43;6.15;;;2.10;;
38909;SDS011;24676;51.360;12.354;2023-09-30T02:18:27;7.72;;;2.42;;
38909;SDS011;24676;51.360;12.354;2023-09-30T02:21:12;14.60;;;2.25;;
38909;SDS011;24676;51.360;12.354;2023-09-30T02:23:56;7.88;;;1.63;;
38909;SDS011;24676;51.360;12.354;2023-09-30T02:26:40;5.30;;;1.65;;
38909;SDS011;24676;51.360;12.354;2023-09-30T02:29:24;4.10;;;1.92;;
38909;SDS011;24676;51.360;12.354;2023-09-30T02:32:08;4.97;;;1.85;;
38909;SDS011;24676;51.360;12.354;2023-09-30T02:34:53;5.50;;;2.35;;
38909;SDS011;24676;51.360;12.354;2023-09-30T02:37:37;9.98;;;2.30;;
38909;SDS011;24676;51.360;12.354;2023-09-30T02:40:21;10.73;;;2.00;;
38909;SDS011;24676;51.360;12.354;2023-09-30T02:43:08;7.07;;;1.80;;
38909;SDS011;24676;51.360;12.354;2023-09-30T02:45:52;4.97;;;2.30;;
38909;SDS011;24676;51.360;12.354;2023-09-30T02:48:36;1.83;;;1.23;;
38909;SDS011;24676;51.360;12.354;2023-09-30T02:51:20;3.95;;;1.88;;
38909;SDS011;24676;51.360;12.354;2023-09-30T02:54:04;2.25;;;1.10;;
38909;SDS011;24676;51.360;12.354;2023-09-30T02:56:49;11.38;;;3.03;;
38909;SDS011;24676;51.360;12.354;2023-09-30T02:59:33;2.33;;;1.58;;
38909;SDS011;24676;51.360;12.354;2023-09-30T03:02:16;2.08;;;1.23;;
38909;SDS011;24676;51.360;12.354;2023-09-30T03:05:02;4.20;;;2.00;;
38909;SDS011;24676;51.360;12.354;2023-09-30T03:07:47;5.45;;;2.17;;
38909;SDS011;24676;51.360;12.354;2023-09-30T03:10:33;8.32;;;2.80;;
38909;SDS011;24676;51.360;12.354;2023-09-30T03:13:18;3.67;;;2.30;;
38909;SDS011;24676;51.360;12.354;2023-09-30T03:16:05;2.38;;;1.90;;
38909;SDS011;24676;51.360;12.354;2023-09-30T03:18:49;11.15;;;2.35;;
38909;SDS011;24676;51.360;12.354;2023-09-30T03:21:34;2.30;;;1.60;;
38909;SDS011;24676;51.360;12.354;2023-09-30T03:24:22;8.85;;;2.10;;
38909;SDS011;24676;51.360;12.354;2023-09-30T03:27:06;8.32;;;2.17;;
38909;SDS011;24676;51.360;12.354;2023-09-30T03:29:51;7.38;;;2.10;;
38909;SDS011;24676;51.360;12.354;2023-09-30T03:32:35;6.75;;;2.30;;
38909;SDS011;24676;51.360;12.354;2023-09-30T03:35:22;6.80;;;2.08;;
38909;SDS011;24676;51.360;12.354;2023-09-30T03:38:07;4.57;;;2.50;;
38909;SDS011;24676;51.360;12.354;2023-09-30T03:40:53;4.20;;;2.97;;
38909;SDS011;24676;51.360;12.354;2023-09-30T03:43:38;7.88;;;2.72;;
38909;SDS011;24676;51.360;12.354;2023-09-30T03:46:24;8.95;;;3.03;;
38909;SDS011;24676;51.360;12.354;2023-09-30T03:49:09;9.55;;;3.00;;
38909;SDS011;24676;51.360;12.354;2023-09-30T03:51:53;7.07;;;2.42;;
38909;SDS011;24676;51.360;12.354;2023-09-30T03:54:37;5.95;;;2.72;;
38909;SDS011;24676;51.360;12.354;2023-09-30T03:57:22;3.55;;;2.30;;
38909;SDS011;24676;51.360;12.354;2023-09-30T04:00:06;5.22;;;1.50;;
38909;SDS011;24676;51.360;12.354;2023-09-30T04:02:51;8.50;;;2.22;;
38909;SDS011;24676;51.360;12.354;2023-09-30T04:05:41;11.70;;;2.45;;
38909;SDS011;24676;51.360;12.354;2023-09-30T04:08:25;5.32;;;1.92;;
38909;SDS011;24676;51.360;12.354;2023-09-30T04:11:09;6.65;;;2.45;;
38909;SDS011;24676;51.360;12.354;2023-09-30T04:13:58;3.70;;;2.67;;
38909;SDS011;24676;51.360;12.354;2023-09-30T04:16:42;7.18;;;4.25;;
38909;SDS011;24676;51.360;12.354;2023-09-30T04:19:26;8.90;;;3.65;;
38909;SDS011;24676;51.360;12.354;2023-09-30T04:22:14;18.55;;;12.85;;
38909;SDS011;24676;51.360;12.354;2023-09-30T04:25:00;12.55;;;9.73;;
38909;SDS011;24676;51.360;12.354;2023-09-30T04:27:44;10.05;;;7.80;;
38909;SDS011;24676;51.360;12.354;2023-09-30T04:30:29;8.60;;;4.88;;
38909;SDS011;24676;51.360;12.354;2023-09-30T04:33:16;4.93;;;2.75;;
38909;SDS011;24676;51.360;12.354;2023-09-30T04:36:08;5.65;;;3.05;;
38909;SDS011;24676;51.360;12.354;2023-09-30T04:38:52;9.98;;;2.25;;
38909;SDS011;24676;51.360;12.354;2023-09-30T04:41:36;3.78;;;1.98;;
38909;SDS011;24676;51.360;12.354;2023-09-30T04:44:20;5.15;;;1.77;;
38909;SDS011;24676;51.360;12.354;2023-09-30T04:47:06;4.53;;;2.15;;
38909;SDS011;24676;51.360;12.354;2023-09-30T04:49:50;6.03;;;2.25;;
38909;SDS011;24676;51.360;12.354;2023-09-30T04:52:35;4.38;;;1.95;;
38909;SDS011;24676;51.360;12.354;2023-09-30T04:55:19;12.85;;;1.73;;
38909;SDS011;24676;51.360;12.354;2023-09-30T04:58:03;6.00;;;2.03;;
38909;SDS011;24676;51.360;12.354;2023-09-30T05:00:48;10.35;;;4.18;;
38909;SDS011;24676;51.360;12.354;2023-09-30T05:03:33;6.55;;;2.40;;
38909;SDS011;24676;51.360;12.354;2023-09-30T05:06:17;5.72;;;2.38;;
38909;SDS011;24676;51.360;12.354;2023-09-30T05:09:01;10.82;;;2.00;;
38909;SDS011;24676;51.360;12.354;2023-09-30T05:11:45;5.82;;;3.17;;
38909;SDS011;24676;51.360;12.354;2023-09-30T05:14:30;10.95;;;2.47;;
38909;SDS011;24676;51.360;12.354;2023-09-30T05:17:15;5.05;;;1.70;;
38909;SDS011;24676;51.360;12.354;2023-09-30T05:19:59;7.38;;;1.95;;
38909;SDS011;24676;51.360;12.354;2023-09-30T05:22:43;4.07;;;1.48;;
38909;SDS011;24676;51.360;12.354;2023-09-30T05:25:32;7.00;;;3.58;;
38909;SDS011;24676;51.360;12.354;2023-09-30T05:28:16;9.13;;;2.40;;
38909;SDS011;24676;51.360;12.354;2023-09-30T05:31:00;7.32;;;3.50;;
38909;SDS011;24676;51.360;12.354;2023-09-30T05:33:46;9.85;;;3.15;;
38909;SDS011;24676;51.360;12.354;2023-09-30T05:36:30;6.15;;;1.83;;
38909;SDS011;24676;51.360;12.354;2023-09-30T05:39:14;8.07;;;1.95;;
38909;SDS011;24676;51.360;12.354;2023-09-30T05:42:03;5.20;;;1.98;;
38909;SDS011;24676;51.360;12.354;2023-09-30T05:44:47;3.72;;;1.75;;
38909;SDS011;24676;51.360;12.354;2023-09-30T05:47:32;8.32;;;1.83;;
38909;SDS011;24676;51.360;12.354;2023-09-30T05:50:16;3.65;;;1.50;;
38909;SDS011;24676;51.360;12.354;2023-09-30T05:53:00;15.07;;;5.25;;
38909;SDS011;24676;51.360;12.354;2023-09-30T05:55:44;9.18;;;1.25;;
38909;SDS011;24676;51.360;12.354;2023-09-30T05:58:29;6.32;;;2.35;;
38909;SDS011;24676;51.360;12.354;2023-09-30T06:01:13;7.05;;;2.35;;
38909;SDS011;24676;51.360;12.354;2023-09-30T06:03:59;6.28;;;1.58;;
38909;SDS011;24676;51.360;12.354;2023-09-30T06:06:44;2.03;;;1.10;;
38909;SDS011;24676;51.360;12.354;2023-09-30T06:09:28;8.35;;;2.97;;
38909;SDS011;24676;51.360;12.354;2023-09-30T06:12:14;6.55;;;2.20;;
38909;SDS011;24676;51.360;12.354;2023-09-30T06:14:58;11.77;;;2.95;;
38909;SDS011;24676;51.360;12.354;2023-09-30T06:17:42;5.13;;;1.33;;
38909;SDS011;24676;51.360;12.354;2023-09-30T06:20:27;4.88;;;1.45;;
38909;SDS011;24676;51.360;12.354;2023-09-30T06:23:14;5.28;;;1.92;;
38909;SDS011;24676;51.360;12.354;2023-09-30T06:25:59;5.15;;;1.77;;
38909;SDS011;24676;51.360;12.354;2023-09-30T06:28:46;6.88;;;2.35;;
38909;SDS011;24676;51.360;12.354;2023-09-30T06:31:31;8.60;;;2.67;;
38909;SDS011;24676;51.360;12.354;2023-09-30T06:34:17;6.20;;;1.80;;
38909;SDS011;24676;51.360;12.354;2023-09-30T06:37:01;14.50;;;3.67;;
38909;SDS011;24676;51.360;12.354;2023-09-30T06:39:46;13.80;;;2.22;;
38909;SDS011;24676;51.360;12.354;2023-09-30T06:42:32;5.72;;;2.05;;
38909;SDS011;24676;51.360;12.354;2023-09-30T06:45:16;3.92;;;1.20;;
38909;SDS011;24676;51.360;12.354;2023-09-30T06:48:01;7.30;;;1.35;;
38909;SDS011;24676;51.360;12.354;2023-09-30T06:50:45;5.90;;;1.90;;
38909;SDS011;24676;51.360;12.354;2023-09-30T06:53:31;4.50;;;1.73;;
38909;SDS011;24676;51.360;12.354;2023-09-30T06:56:15;6.10;;;1.98;;
38909;SDS011;24676;51.360;12.354;2023-09-30T06:59:00;13.32;;;2.58;;
38909;SDS011;24676;51.360;12.354;2023-09-30T07:01:44;8.93;;;1.98;;
38909;SDS011;24676;51.360;12.354;2023-09-30T07:04:29;6.50;;;1.83;;
38909;SDS011;24676;51.360;12.354;2023-09-30T07:07:14;5.82;;;1.70;;
38909;SDS011;24676;51.360;12.354;2023-09-30T07:09:59;4.43;;;2.08;;
38909;SDS011;24676;51.360;12.354;2023-09-30T07:12:43;3.08;;;1.40;;
38909;SDS011;24676;51.360;12.354;2023-09-30T07:15:27;6.00;;;1.90;;
38909;SDS011;24676;51.360;12.354;2023-09-30T07:18:12;2.17;;;1.08;;
38909;SDS011;24676;51.360;12.354;2023-09-30T07:20:56;3.92;;;1.60;;
38909;SDS011;24676;51.360;12.354;2023-09-30T07:23:40;9.68;;;1.73;;
38909;SDS011;24676;51.360;12.354;2023-09-30T07:26:25;5.13;;;1.50;;
38909;SDS011;24676;51.360;12.354;2023-09-30T07:29:11;4.35;;;1.60;;
38909;SDS011;24676;51.360;12.354;2023-09-30T07:31:55;6.22;;;1.55;;
38909;SDS011;24676;51.360;12.354;2023-09-30T07:34:39;5.68;;;0.95;;
38909;SDS011;24676;51.360;12.354;2023-09-30T07:37:24;11.05;;;2.03;;
38909;SDS011;24676;51.360;12.354;2023-09-30T07:40:09;6.25;;;1.75;;
38909;SDS011;24676;51.360;12.354;2023-09-30T07:42:54;5.13;;;0.80;;
38909;SDS011;24676;51.360;12.354;2023-09-30T07:45:40;8.55;;;1.83;;
38909;SDS011;24676;51.360;12.354;2023-09-30T07:48:24;4.57;;;2.05;;
38909;SDS011;24676;51.360;12.354;2023-09-30T07:51:10;9.27;;;2.15;;
38909;SDS011;24676;51.360;12.354;2023-09-30T07:53:56;8.77;;;1.75;;
38909;SDS011;24676;51.360;12.354;2023-09-30T07:56:41;2.88;;;1.00;;
38909;SDS011;24676;51.360;12.354;2023-09-30T07:59:25;6.55;;;1.80;;
38909;SDS011;24676;51.360;12.354;2023-09-30T08:02:10;8.88;;;1.52;;
38909;SDS011;24676;51.360;12.354;2023-09-30T08:04:54;14.32;;;2.90;;
38909;SDS011;24676;51.360;12.354;2023-09-30T08:07:39;8.57;;;1.80;;
38909;SDS011;24676;51.360;12.354;2023-09-30T08:10:23;9.80;;;1.90;;
38909;SDS011;24676;51.360;12.354;2023-09-30T08:13:07;8.57;;;1.70;;
38909;SDS011;24676;51.360;12.354;2023-09-30T08:15:53;5.97;;;1.58;;
38909;SDS011;24676;51.360;12.354;2023-09-30T08:18:37;1.67;;;0.80;;
38909;SDS011;24676;51.360;12.354;2023-09-30T08:21:22;3.83;;;1.67;;
38909;SDS011;24676;51.360;12.354;2023-09-30T08:24:06;4.88;;;1.45;;
38909;SDS011;24676;51.360;12.354;2023-09-30T08:26:51;6.50;;;1.60;;
38909;SDS011;24676;51.360;12.354;2023-09-30T08:29:36;4.32;;;1.35;;
38909;SDS011;24676;51.360;12.354;2023-09-30T08:32:20;3.95;;;1.20;;
38909;SDS011;24676;51.360;12.354;2023-09-30T08:35:05;4.60;;;1.17;;
38909;SDS011;24676;51.360;12.354;2023-09-30T08:37:50;8.90;;;1.85;;
38909;SDS011;24676;51.360;12.354;2023-09-30T08:40:34;4.97;;;1.77;;
38909;SDS011;24676;51.360;12.354;2023-09-30T08:43:19;10.85;;;2.08;;
38909;SDS011;24676;51.360;12.354;2023-09-30T08:46:08;10.45;;;1.92;;
38909;SDS011;24676;51.360;12.354;2023-09-30T08:48:53;11.43;;;1.92;;
38909;SDS011;24676;51.360;12.354;2023-09-30T08:51:38;5.75;;;1.58;;
38909;SDS011;24676;51.360;12.354;2023-09-30T08:54:22;5.88;;;1.23;;
38909;SDS011;24676;51.360;12.354;2023-09-30T08:57:07;5.90;;;2.05;;
38909;SDS011;24676;51.360;12.354;2023-09-30T08:59:53;5.72;;;2.10;;
38909;SDS011;24676;51.360;12.354;2023-09-30T09:02:38;8.75;;;1.92;;
38909;SDS011;24676;51.360;12.354;2023-09-30T09:05:23;22.10;;;2.70;;
38909;SDS011;24676;51.360;12.354;2023-09-30T09:08:07;6.55;;;2.47;;
38909;SDS011;24676;51.360;12.354;2023-09-30T09:10:57;7.30;;;2.53;;
38909;SDS011;24676;51.360;12.354;2023-09-30T09:13:47;6.45;;;1.40;;
38909;SDS011;24676;51.360;12.354;2023-09-30T09:16:33;3.40;;;1.58;;
38909;SDS011;24676;51.360;12.354;2023-09-30T09:19:17;9.10;;;1.50;;
38909;SDS011;24676;51.360;12.354;2023-09-30T09:22:02;5.82;;;1.55;;
38909;SDS011;24676;51.360;12.354;2023-09-30T09:24:50;6.72;;;1.83;;
38909;SDS011;24676;51.360;12.354;2023-09-30T09:27:35;10.70;;;2.33;;
38909;SDS011;24676;51.360;12.354;2023-09-30T09:30:22;7.82;;;1.40;;
38909;SDS011;24676;51.360;12.354;2023-09-30T09:33:07;7.68;;;2.92;;
38909;SDS011;24676;51.360;12.354;2023-09-30T09:35:52;6.15;;;1.63;;
38909;SDS011;24676;51.360;12.354;2023-09-30T09:38:46;2.75;;;0.80;;
38909;SDS011;24676;51.360;12.354;2023-09-30T09:41:53;4.95;;;1.38;;
38909;SDS011;24676;51.360;12.354;2023-09-30T09:44:39;6.38;;;1.38;;
38909;SDS011;24676;51.360;12.354;2023-09-30T09:47:25;9.73;;;2.55;;
38909;SDS011;24676;51.360;12.354;2023-09-30T09:50:10;4.80;;;1.60;;
38909;SDS011;24676;51.360;12.354;2023-09-30T09:52:55;17.40;;;2.15;;
38909;SDS011;24676;51.360;12.354;2023-09-30T09:55:42;8.95;;;1.05;;
38909;SDS011;24676;51.360;12.354;2023-09-30T09:58:27;6.25;;;1.10;;
38909;SDS011;24676;51.360;12.354;2023-09-30T10:01:15;7.38;;;1.42;;
38909;SDS011;24676;51.360;12.354;2023-09-30T10:04:00;8.70;;;1.13;;
38909;SDS011;24676;51.360;12.354;2023-09-30T10:06:44;5.82;;;2.20;;
38909;SDS011;24676;51.360;12.354;2023-09-30T10:09:34;2.78;;;1.30;;
38909;SDS011;24676;51.360;12.354;2023-09-30T10:12:19;7.32;;;1.77;;
38909;SDS011;24676;51.360;12.354;2023-09-30T10:21:07;5.32;;;0.75;;
38909;SDS011;24676;51.360;12.354;2023-09-30T10:23:59;7.50;;;1.13;;
38909;SDS011;24676;51.360;12.354;2023-09-30T10:35:44;5.78;;;1.10;;
38909;SDS011;24676;51.360;12.354;2023-09-30T10:41:48;5.25;;;1.45;;
38909;SDS011;24676;51.360;12.354;2023-09-30T10:44:34;4.70;;;0.98;;
38909;SDS011;24676;51.360;12.354;2023-09-30T10:50:48;3.42;;;1.73;;
38909;SDS011;24676;51.360;12.354;2023-09-30T10:53:29;8.07;;;1.20;;
38909;SDS011;24676;51.360;12.354;2023-09-30T10:56:14;8.17;;;1.57;;
38909;SDS011;24676;51.360;12.354;2023-09-30T10:58:59;8.77;;;1.50;;
38909;SDS011;24676;51.360;12.354;2023-09-30T11:01:46;2.40;;;1.15;;
38909;SDS011;24676;51.360;12.354;2023-09-30T11:12:59;4.97;;;1.27;;
38909;SDS011;24676;51.360;12.354;2023-09-30T11:15:47;6.88;;;0.75;;
38909;SDS011;24676;51.360;12.354;2023-09-30T11:18:31;3.00;;;0.88;;
38909;SDS011;24676;51.360;12.354;2023-09-30T11:21:15;6.72;;;1.25;;
38909;SDS011;24676;51.360;12.354;2023-09-30T11:24:00;5.07;;;1.67;;
38909;SDS011;24676;51.360;12.354;2023-09-30T11:26:45;3.50;;;1.38;;
38909;SDS011;24676;51.360;12.354;2023-09-30T11:29:30;6.32;;;1.35;;
38909;SDS011;24676;51.360;12.354;2023-09-30T11:32:24;10.45;;;1.95;;
38909;SDS011;24676;51.360;12.354;2023-09-30T11:35:21;7.80;;;0.90;;
38909;SDS011;24676;51.360;12.354;2023-09-30T11:41:04;10.90;;;2.80;;
38909;SDS011;24676;51.360;12.354;2023-09-30T11:44:03;7.25;;;1.65;;
38909;SDS011;24676;51.360;12.354;2023-09-30T11:46:52;5.18;;;1.80;;
38909;SDS011;24676;51.360;12.354;2023-09-30T11:49:42;7.00;;;1.30;;
38909;SDS011;24676;51.360;12.354;2023-09-30T11:55:15;6.97;;;1.30;;
38909;SDS011;24676;51.360;12.354;2023-09-30T11:58:00;7.07;;;1.52;;
38909;SDS011;24676;51.360;12.354;2023-09-30T12:00:45;6.25;;;0.95;;
38909;SDS011;24676;51.360;12.354;2023-09-30T12:03:29;7.93;;;1.45;;
38909;SDS011;24676;51.360;12.354;2023-09-30T12:06:13;4.53;;;1.23;;
38909;SDS011;24676;51.360;12.354;2023-09-30T12:08:59;4.63;;;0.88;;
38909;SDS011;24676;51.360;12.354;2023-09-30T12:11:44;3.35;;;0.70;;
38909;SDS011;24676;51.360;12.354;2023-09-30T12:14:29;5.53;;;1.20;;
38909;SDS011;24676;51.360;12.354;2023-09-30T12:17:14;4.90;;;1.10;;
38909;SDS011;24676;51.360;12.354;2023-09-30T12:19:59;6.88;;;1.13;;
38909;SDS011;24676;51.360;12.354;2023-09-30T12:22:44;8.57;;;1.55;;
38909;SDS011;24676;51.360;12.354;2023-09-30T12:25:28;2.53;;;1.10;;
38909;SDS011;24676;51.360;12.354;2023-09-30T12:28:13;12.02;;;1.10;;
38909;SDS011;24676;51.360;12.354;2023-09-30T12:31:01;8.57;;;1.73;;
38909;SDS011;24676;51.360;12.354;2023-09-30T12:33:46;2.88;;;0.93;;
38909;SDS011;24676;51.360;12.354;2023-09-30T12:36:34;6.10;;;2.15;;
38909;SDS011;24676;51.360;12.354;2023-09-30T12:39:19;4.97;;;0.77;;
38909;SDS011;24676;51.360;12.354;2023-09-30T12:42:07;3.78;;;0.88;;
38909;SDS011;24676;51.360;12.354;2023-09-30T12:44:54;7.18;;;0.77;;
38909;SDS011;24676;51.360;12.354;2023-09-30T12:47:38;3.97;;;1.05;;
38909;SDS011;24676;51.360;12.354;2023-09-30T12:50:22;3.97;;;1.17;;
38909;SDS011;24676;51.360;12.354;2023-09-30T12:53:06;4.72;;;1.30;;
38909;SDS011;24676;51.360;12.354;2023-09-30T12:55:50;9.27;;;1.42;;
38909;SDS011;24676;51.360;12.354;2023-09-30T12:58:34;9.43;;;2.05;;
38909;SDS011;24676;51.360;12.354;2023-09-30T13:01:19;4.82;;;1.20;;
38909;SDS011;24676;51.360;12.354;2023-09-30T13:04:03;6.93;;;1.15;;
38909;SDS011;24676;51.360;12.354;2023-09-30T13:06:51;3.42;;;0.95;;
38909;SDS011;24676;51.360;12.354;2023-09-30T13:09:36;3.20;;;1.20;;
38909;SDS011;24676;51.360;12.354;2023-09-30T13:12:23;6.88;;;1.23;;
38909;SDS011;24676;51.360;12.354;2023-09-30T13:15:08;5.30;;;1.35;;
38909;SDS011;24676;51.360;12.354;2023-09-30T13:20:36;3.40;;;1.70;;
38909;SDS011;24676;51.360;12.354;2023-09-30T13:26:05;5.37;;;1.33;;
38909;SDS011;24676;51.360;12.354;2023-09-30T16:49:20;10.30;;;4.90;;
38909;SDS011;24676;51.360;12.354;2023-09-30T16:54:49;18.60;;;10.10;;
38909;SDS011;24676;51.360;12.354;2023-09-30T17:22:21;10.80;;;2.30;;
38909;SDS011;24676;51.360;12.354;2023-09-30T17:27:50;10.40;;;4.40;;
38909;SDS011;24676;51.360;12.354;2023-09-30T17:30:34;7.25;;;3.60;;
38909;SDS011;24676;51.360;12.354;2023-09-30T17:36:04;13.43;;;4.78;;
38909;SDS011;24676;51.360;12.354;2023-09-30T17:38:49;9.25;;;4.13;;
38909;SDS011;24676;51.360;12.354;2023-09-30T17:41:33;13.25;;;5.15;;
38909;SDS011;24676;51.360;12.354;2023-09-30T17:44:18;7.95;;;5.75;;
38909;SDS011;24676;51.360;12.354;2023-09-30T18:00:48;20.75;;;8.65;;
38909;SDS011;24676;51.360;12.354;2023-09-30T18:03:33;20.75;;;9.18;;
38909;SDS011;24676;51.360;12.354;2023-09-30T18:06:17;24.83;;;9.95;;
38909;SDS011;24676;51.360;12.354;2023-09-30T18:09:02;28.77;;;11.20;;
38909;SDS011;24676;51.360;12.354;2023-09-30T18:11:47;23.58;;;12.52;;
38909;SDS011;24676;51.360;12.354;2023-09-30T18:14:31;33.80;;;11.23;;
38909;SDS011;24676;51.360;12.354;2023-09-30T18:17:15;19.48;;;10.02;;
38909;SDS011;24676;51.360;12.354;2023-09-30T18:19:59;38.95;;;12.68;;
38909;SDS011;24676;51.360;12.354;2023-09-30T18:22:43;23.60;;;11.73;;
38909;SDS011;24676;51.360;12.354;2023-09-30T18:25:28;29.02;;;10.60;;
38909;SDS011;24676;51.360;12.354;2023-09-30T18:28:17;22.27;;;13.13;;
38909;SDS011;24676;51.360;12.354;2023-09-30T18:31:02;16.85;;;8.98;;
38909;SDS011;24676;51.360;12.354;2023-09-30T18:33:46;15.65;;;6.82;;
38909;SDS011;24676;51.360;12.354;2023-09-30T18:36:30;23.23;;;10.32;;
38909;SDS011;24676;51.360;12.354;2023-09-30T18:39:14;10.48;;;6.85;;
38909;SDS011;24676;51.360;12.354;2023-09-30T18:41:58;19.13;;;6.72;;
38909;SDS011;24676;51.360;12.354;2023-09-30T18:44:42;15.40;;;7.03;;
38909;SDS011;24676;51.360;12.354;2023-09-30T18:47:26;14.45;;;8.98;;
38909;SDS011;24676;51.360;12.354;2023-09-30T18:50:10;25.80;;;10.15;;
38909;SDS011;24676;51.360;12.354;2023-09-30T18:52:55;16.70;;;9.48;;
38909;SDS011;24676;51.360;12.354;2023-09-30T18:55:40;20.85;;;9.60;;
38909;SDS011;24676;51.360;12.354;2023-09-30T18:58:26;17.17;;;9.13;;
38909;SDS011;24676;51.360;12.354;2023-09-30T19:01:10;26.15;;;9.48;;
38909;SDS011;24676;51.360;12.354;2023-09-30T19:03:54;14.60;;;9.55;;
38909;SDS011;24676;51.360;12.354;2023-09-30T19:06:39;20.88;;;9.52;;
38909;SDS011;24676;51.360;12.354;2023-09-30T19:09:24;16.63;;;8.73;;
38909;SDS011;24676;51.360;12.354;2023-09-30T19:12:08;20.25;;;9.63;;
38909;SDS011;24676;51.360;12.354;2023-09-30T19:14:53;17.05;;;8.70;;
38909;SDS011;24676;51.360;12.354;2023-09-30T20:18:02;15.27;;;9.85;;
38909;SDS011;24676;51.360;12.354;2023-09-30T20:20:46;16.65;;;11.50;;
38909;SDS011;24676;51.360;12.354;2023-09-30T20:23:30;18.98;;;11.98;;
38909;SDS011;24676;51.360;12.354;2023-09-30T20:26:14;21.40;;;10.43;;
38909;SDS011;24676;51.360;12.354;2023-09-30T20:29:05;18.17;;;12.38;;
38909;SDS011;24676;51.360;12.354;2023-09-30T20:31:50;25.00;;;13.23;;
38909;SDS011;24676;51.360;12.354;2023-09-30T20:34:35;20.23;;;11.80;;
38909;SDS011;24676;51.360;12.354;2023-09-30T20:37:19;15.02;;;7.85;;
38909;SDS011;24676;51.360;12.354;2023-09-30T20:40:04;12.63;;;8.30;;
38909;SDS011;24676;51.360;12.354;2023-09-30T20:42:49;12.20;;;8.30;;
38909;SDS011;24676;51.360;12.354;2023-09-30T20:45:33;14.38;;;6.90;;
38909;SDS011;24676;51.360;12.354;2023-09-30T20:48:17;13.85;;;7.18;;
38909;SDS011;24676;51.360;12.354;2023-09-30T20:51:04;13.18;;;9.30;;
38909;SDS011;24676;51.360;12.354;2023-09-30T20:53:50;19.50;;;10.10;;
38909;SDS011;24676;51.360;12.354;2023-09-30T20:56:35;22.15;;;11.63;;
38909;SDS011;24676;51.360;12.354;2023-09-30T20:59:20;17.75;;;8.50;;
38909;SDS011;24676;51.360;12.354;2023-09-30T21:02:04;12.57;;;6.90;;
38909;SDS011;24676;51.360;12.354;2023-09-30T21:04:48;10.90;;;6.00;;
38909;SDS011;24676;51.360;12.354;2023-09-30T21:07:33;6.03;;;4.88;;
38909;SDS011;24676;51.360;12.354;2023-09-30T21:10:17;9.82;;;5.22;;
38909;SDS011;24676;51.360;12.354;2023-09-30T21:13:01;12.45;;;6.38;;
38909;SDS011;24676;51.360;12.354;2023-09-30T21:15:45;13.18;;;7.05;;
38909;SDS011;24676;51.360;12.354;2023-09-30T21:18:30;8.93;;;5.80;;
38909;SDS011;24676;51.360;12.354;2023-09-30T21:21:14;11.30;;;6.63;;
38909;SDS011;24676;51.360;12.354;2023-09-30T21:23:59;12.43;;;7.13;;
38909;SDS011;24676;51.360;12.354;2023-09-30T21:26:44;15.00;;;7.45;;
38909;SDS011;24676;51.360;12.354;2023-09-30T21:29:28;15.23;;;8.82;;
38909;SDS011;24676;51.360;12.354;2023-09-30T21:32:12;25.75;;;12.73;;
38909;SDS011;24676;51.360;12.354;2023-09-30T21:34:57;23.58;;;11.48;;
38909;SDS011;24676;51.360;12.354;2023-09-30T21:37:41;26.67;;;11.52;;
38909;SDS011;24676;51.360;12.354;2023-09-30T21:40:26;19.92;;;12.27;;
38909;SDS011;24676;51.360;12.354;2023-09-30T21:43:10;15.70;;;11.63;;
38909;SDS011;24676;51.360;12.354;2023-09-30T21:45:55;16.65;;;9.75;;
38909;SDS011;24676;51.360;12.354;2023-09-30T21:48:39;18.92;;;8.52;;
38909;SDS011;24676;51.360;12.354;2023-09-30T21:51:24;16.13;;;8.40;;
38909;SDS011;24676;51.360;12.354;2023-09-30T21:54:08;15.68;;;9.40;;
38909;SDS011;24676;51.360;12.354;2023-09-30T21:56:53;16.35;;;8.32;;
38909;SDS011;24676;51.360;12.354;2023-09-30T21:59:37;15.43;;;8.65;;
38909;SDS011;24676;51.360;12.354;2023-09-30T22:02:21;21.88;;;10.13;;
38909;SDS011;24676;51.360;12.354;2023-09-30T22:05:06;22.27;;;10.10;;